This is the latest recevied weather packets stored in our database for station/object KE8DAF-15. If no packets are shown the sender has not sent any weather packets the latest 1 day(s).
| Time | Temp. | Humidity | Pressure | Rain* | Wind** | Luminosity | Snow |
|---|---|---|---|---|---|---|---|
| 1778082596 | 6.67° C | 51% | 999.3 hPa | 0 mm | - | - | - |
| 1778082296 | 6.67° C | 51% | 999.4 hPa | 0 mm | - | - | - |
| 1778081996 | 6.11° C | 56% | 999.4 hPa | 0 mm | - | - | - |
| 1778081696 | 5° C | 56% | 999.5 hPa | 0 mm | - | - | - |
| 1778081396 | 5° C | 55% | 999.6 hPa | 0 mm | - | - | - |
| 1778080796 | 5° C | 56% | 999.6 hPa | 0 mm | - | - | - |
| 1778080497 | 5° C | 55% | 999.6 hPa | 0 mm | - | - | - |
| 1778080196 | 5° C | 54% | 999.6 hPa | 0 mm | - | - | - |
| 1778079596 | 5.56° C | 53% | 999.5 hPa | 0 mm | - | - | - |
| 1778079296 | 5° C | 55% | 999.6 hPa | 0 mm | - | - | - |
| 1778078996 | 5° C | 54% | 999.5 hPa | 0 mm | - | - | - |
| 1778078096 | 4.44° C | 57% | 999.5 hPa | 0 mm | - | - | - |
| 1778077796 | 4.44° C | 57% | 999.4 hPa | 0 mm | - | - | - |
| 1778077496 | 4.44° C | 59% | 999.5 hPa | 0 mm | - | - | - |
| 1778076896 | 4.44° C | 60% | 999.5 hPa | 0 mm | - | - | - |
| 1778076296 | 4.44° C | 59% | 999.3 hPa | 0 mm | - | - | - |
| 1778075996 | 4.44° C | 58% | 999.2 hPa | 0 mm | - | - | - |
| 1778075696 | 4.44° C | 58% | 999.3 hPa | 0 mm | - | - | - |
| 1778067897 | -0.56° C | 85% | 998.6 hPa | 0 mm | - | - | - |
| 1778067597 | -0.56° C | 85% | 998.5 hPa | 0 mm | - | - | - |
| 1778067297 | -1.11° C | 86% | 998.5 hPa | 0 mm | - | - | - |
| 1778066997 | -1.11° C | 86% | 998.5 hPa | 0 mm | - | - | - |
| 1778066697 | -1.11° C | 85% | 998.4 hPa | 0 mm | - | - | - |
| 1778066097 | -1.11° C | 85% | 998.2 hPa | 0 mm | - | - | - |
| 1778065797 | -1.11° C | 84% | 998.1 hPa | 0 mm | - | - | - |
* Rain latest hour (hover to see other rain measurements)
** Current wind speed in m/s (hover to see current wind gust speed)